Thursday, August 16, 2018, 12:00 AM EDT
Back to Local

KLNS, Lancaster Airport

Location: Lititz, PA, United States Lat: 40.117
Local Time: 12:00 AM EDT ( 4:00 GMT) Lon: -76.3
Time Zone: US/Eastern Elev: 403 ft

Show me the last for .
Show Decoded

2018-08-15 22:53 METAR KLNS 160253Z 28005KT 10SM CLR 24/21 A3004 RMK AO2 SLP168 T02440211 51017 =
2018-08-15 21:53 METAR KLNS 160153Z 27004KT 10SM CLR 26/21 A3003 RMK AO2 SLP166 T02560211 =
2018-08-15 20:53 METAR KLNS 160053Z 26006KT 10SM CLR 26/21 A3001 RMK AO2 SLP158 T02610211 =
2018-08-15 19:53 METAR KLNS 152353Z 23005KT 10SM CLR 28/21 A2999 RMK AO2 SLP152 T02780206 10306
                 20278 53003 =
2018-08-15 18:53 METAR KLNS 152253Z 25009KT 10SM CLR 29/21 A2998 RMK AO2 SLP147 T02940211 =
2018-08-15 17:53 METAR KLNS 152153Z 27009KT 10SM CLR 29/21 A2998 RMK AO2 SLP149 T02940206 =
2018-08-15 16:53 METAR KLNS 152053Z 27008KT 10SM CLR 31/22 A2998 RMK AO2 SLP149 T03060217 55003 =
2018-08-15 15:53 METAR KLNS 151953Z 27010KT 10SM CLR 31/21 A2998 RMK AO2 SLP148 T03060206 =
2018-08-15 14:53 METAR KLNS 151853Z 30008KT 10SM FEW048 30/21 A2999 RMK AO2 SLP151 T03000211 =
2018-08-15 13:53 METAR KLNS 151753Z 29012KT 10SM FEW045 30/21 A2999 RMK AO2 SLP152 6////
                 T03000211 58005 =
2018-08-15 12:53 METAR KLNS 151653Z COR 31009KT 10SM FEW040 29/21 A3000 =
2018-08-15 11:53 METAR KLNS 151553Z COR 29010KT 10SM CLR 27/21 A3000 =
2018-08-15 10:53 METAR KLNS 151453Z 29007KT 10SM CLR 27/21 A3000 RMK AO2 SLP157 T02670211 51009 $
                 =
2018-08-15 09:53 METAR KLNS 151353Z 29010KT 10SM CLR 25/21 A3000 RMK AO2 SLP155 T02500206 =
2018-08-15 08:53 METAR KLNS 151253Z 29010KT 10SM CLR 23/20 A2999 RMK AO2 SLP151 T02330200 =
2018-08-15 07:53 METAR KLNS 151153Z 27008KT 9SM CLR 21/19 A2998 RMK AO2 SLP149 70017 T02110194
                 10217 20194 53014 =
2018-08-15 06:53 METAR KLNS 151053Z 29007KT 7SM CLR 20/19 A2996 RMK AO2 SLP143 T02000189 =
2018-08-15 05:53 METAR KLNS 150953Z 29008KT 9SM CLR 20/19 A2995 RMK AO2 SLP138 T02000189 =
2018-08-15 04:53 METAR KLNS 150853Z AUTO 28007KT 9SM CLR 20/19 A2994 RMK AO2 SLP133 T02000189
                 53002 =
2018-08-15 03:53 METAR KLNS 150753Z AUTO 28008KT 10SM CLR 21/19 A2993 RMK AO2 SLP131 T02060189 =
2018-08-15 02:53 METAR KLNS 150653Z AUTO 27007KT 10SM CLR 21/19 A2993 RMK AO2 SLP131 T02110194 =
2018-08-15 01:53 METAR KLNS 150553Z AUTO 27008KT 10SM SCT100 22/19 A2993 RMK AO2 RAB06E15 SLP131
                 P0000 60000 T02170194 10233 20211 58001 =
2018-08-15 00:53 METAR KLNS 150453Z AUTO 30006KT 10SM FEW120 21/19 A2993 RMK AO2 SLP133 T02110194
                 402720200 =

Support USWX by starting your Amazon purchase here.